Time;durP1;ratioP1;P1;durP2;ratioP2;P2;SDS_P1;SDS_P2;PMS_P1;PMS_P2;Temp;Humidity;BMP_temperature;BMP_pressure;BME280_temperature;BME280_humidity;BME280_pressure;Samples;Min_cycle;Max_cycle;Signal;HPM_P1;HPM_P2
2023/04/20 00:00:30;;;;;;;50.38;29.05;;;6.70;99.90;;;;;;5094439;28;20137;-77
2023/04/20 00:02:55;;;;;;;57.90;28.77;;;6.60;99.90;;;;;;5094332;28;20024;-76
2023/04/20 00:05:22;;;;;;;52.75;28.40;;;6.60;99.90;;;;;;5094352;28;20439;-76
2023/04/20 00:07:48;;;;;;;62.65;28.33;;;6.60;99.90;;;;;;5095587;28;20465;-77
2023/04/20 00:10:14;;;;;;;58.92;28.55;;;6.60;99.90;;;;;;5094251;28;20020;-76
2023/04/20 00:12:41;;;;;;;53.30;26.52;;;6.60;99.90;;;;;;5095218;28;20031;-78
2023/04/20 00:15:07;;;;;;;55.13;28.08;;;6.60;99.90;;;;;;5095431;28;20044;-78
2023/04/20 00:17:33;;;;;;;49.38;27.88;;;6.60;99.90;;;;;;5093955;28;20019;-77
2023/04/20 00:19:58;;;;;;;53.65;26.92;;;6.60;99.90;;;;;;5095479;28;20023;-76
2023/04/20 00:22:25;;;;;;;57.97;29.30;;;6.50;99.90;;;;;;5095358;28;20020;-76
2023/04/20 00:24:51;;;;;;;52.97;26.42;;;6.50;99.90;;;;;;5095276;28;20021;-75
2023/04/20 00:27:16;;;;;;;49.70;26.25;;;6.50;99.90;;;;;;5095264;28;20020;-77
2023/04/20 00:29:42;;;;;;;56.70;29.15;;;6.50;99.90;;;;;;5095070;28;20020;-77
2023/04/20 00:32:08;;;;;;;54.25;27.55;;;6.50;99.90;;;;;;5094726;28;20056;-76
2023/04/20 00:34:33;;;;;;;53.90;26.73;;;6.40;99.90;;;;;;5093655;28;20022;-77
2023/04/20 00:36:59;;;;;;;54.20;29.05;;;6.40;99.90;;;;;;5094992;28;20025;-77
2023/04/20 00:39:25;;;;;;;50.92;24.98;;;6.40;99.90;;;;;;5095096;28;20030;-76
2023/04/20 00:41:50;;;;;;;56.45;27.98;;;6.40;99.90;;;;;;5093451;28;20119;-76
2023/04/20 00:44:16;;;;;;;45.38;25.17;;;6.40;99.90;;;;;;5094922;28;20016;-77
2023/04/20 00:46:41;;;;;;;52.20;26.67;;;6.40;99.90;;;;;;5093429;28;20032;-76
2023/04/20 00:49:08;;;;;;;54.22;27.75;;;6.30;99.90;;;;;;5093361;28;20058;-76
2023/04/20 00:51:34;;;;;;;54.90;29.80;;;6.30;99.90;;;;;;5094704;28;20020;-77
2023/04/20 00:54:00;;;;;;;53.10;25.50;;;6.30;99.90;;;;;;5093331;28;20023;-77
2023/04/20 00:56:26;;;;;;;49.28;25.63;;;6.20;99.90;;;;;;5093209;28;20028;-77
2023/04/20 00:58:51;;;;;;;49.67;26.30;;;6.20;99.90;;;;;;5094375;28;20020;-77
2023/04/20 01:01:18;;;;;;;48.63;25.42;;;6.20;99.90;;;;;;5094463;28;20028;-77
2023/04/20 01:03:44;;;;;;;51.95;24.98;;;6.10;99.90;;;;;;5093020;28;20024;-78
2023/04/20 01:06:12;;;;;;;48.97;25.50;;;6.10;99.90;;;;;;5093309;28;20077;-77
2023/04/20 01:08:48;;;;;;;52.40;26.10;;;6.00;99.90;;;;;;5094291;28;20066;-76
2023/04/20 01:11:14;;;;;;;58.38;26.52;;;6.00;99.90;;;;;;5093827;28;20052;-77
2023/04/20 01:13:40;;;;;;;54.05;27.27;;;6.00;99.90;;;;;;5094132;28;20052;-77
2023/04/20 01:16:06;;;;;;;51.15;26.80;;;6.00;99.90;;;;;;5094224;28;20039;-76
2023/04/20 01:18:47;;;;;;;60.78;29.15;;;5.90;99.90;;;;;;5092930;28;20432;-78
2023/04/20 01:21:14;;;;;;;56.17;26.35;;;5.90;99.90;;;;;;5092895;28;20040;-77
2023/04/20 01:23:39;;;;;;;55.95;26.63;;;5.90;99.90;;;;;;5092765;28;20020;-77
2023/04/20 01:26:09;;;;;;;54.03;26.13;;;5.90;99.90;;;;;;5094232;28;20384;-77
2023/04/20 01:28:34;;;;;;;51.88;25.52;;;5.80;99.90;;;;;;5094093;28;20035;-78
2023/04/20 01:31:02;;;;;;;57.83;29.80;;;5.80;99.90;;;;;;5094071;28;20021;-76
2023/04/20 01:33:28;;;;;;;56.28;27.13;;;5.70;99.90;;;;;;5093917;28;20058;-77
2023/04/20 01:35:53;;;;;;;60.70;27.42;;;5.70;99.90;;;;;;5094058;28;20040;-77
2023/04/20 01:38:20;;;;;;;57.15;27.85;;;5.70;99.90;;;;;;5094034;28;20404;-76
2023/04/20 01:40:46;;;;;;;65.13;30.50;;;5.70;99.90;;;;;;5093788;28;20027;-76
2023/04/20 01:43:12;;;;;;;57.60;30.35;;;5.80;99.90;;;;;;5093779;28;20099;-77
2023/04/20 01:45:37;;;;;;;56.40;29.35;;;5.70;99.90;;;;;;5093720;28;20028;-76
2023/04/20 01:48:03;;;;;;;59.47;27.92;;;5.80;99.90;;;;;;5092543;28;20393;-76
2023/04/20 01:50:29;;;;;;;60.00;29.77;;;5.80;99.90;;;;;;5092287;28;20058;-77
2023/04/20 01:52:54;;;;;;;58.97;27.38;;;5.80;99.90;;;;;;5093809;28;20377;-76
2023/04/20 01:55:20;;;;;;;69.38;29.98;;;5.80;99.90;;;;;;5092437;28;20039;-76
2023/04/20 01:57:45;;;;;;;62.28;27.83;;;5.90;99.90;;;;;;5092412;28;20137;-76
2023/04/20 02:00:12;;;;;;;59.10;29.33;;;5.90;99.90;;;;;;5093214;28;20153;-77
2023/04/20 02:02:38;;;;;;;61.92;29.15;;;5.90;99.90;;;;;;5092323;28;20101;-76
2023/04/20 02:05:03;;;;;;;59.90;30.38;;;5.90;99.90;;;;;;5093500;28;20024;-77
2023/04/20 02:07:29;;;;;;;63.67;30.45;;;6.00;99.90;;;;;;5092169;28;20096;-76
2023/04/20 02:09:55;;;;;;;68.70;32.10;;;6.00;99.90;;;;;;5077385;28;20024;-76
2023/04/20 02:12:21;;;;;;;59.78;27.88;;;6.10;99.90;;;;;;5071979;28;20021;-76
2023/04/20 02:14:47;;;;;;;59.97;28.92;;;6.10;99.90;;;;;;5074370;28;20028;-77
2023/04/20 02:17:12;;;;;;;57.50;28.25;;;6.10;99.90;;;;;;5076066;28;20033;-77
2023/04/20 02:19:38;;;;;;;61.22;29.10;;;6.10;99.90;;;;;;5077408;28;20043;-76
2023/04/20 02:22:05;;;;;;;62.75;29.50;;;6.10;99.90;;;;;;5076097;28;20035;-76
2023/04/20 02:24:31;;;;;;;54.70;28.90;;;6.10;99.90;;;;;;5077325;28;20386;-77
2023/04/20 02:26:57;;;;;;;54.72;28.38;;;6.20;99.90;;;;;;5075922;28;20025;-77
2023/04/20 02:29:23;;;;;;;63.38;29.58;;;6.10;99.90;;;;;;5076085;28;20028;-77
2023/04/20 02:31:49;;;;;;;57.25;27.58;;;6.20;99.90;;;;;;5076734;28;20021;-76
2023/04/20 02:34:15;;;;;;;57.38;27.08;;;6.20;99.90;;;;;;5075888;28;20385;-76
2023/04/20 02:36:40;;;;;;;51.88;25.10;;;6.10;99.90;;;;;;5076898;28;20036;-77
2023/04/20 02:39:06;;;;;;;58.47;26.45;;;6.10;99.90;;;;;;5075819;28;20028;-75
2023/04/20 02:41:32;;;;;;;59.03;26.17;;;6.10;99.90;;;;;;5076902;28;20031;-76
2023/04/20 02:43:57;;;;;;;47.83;24.92;;;6.10;99.90;;;;;;5075716;28;20078;-76
2023/04/20 02:46:23;;;;;;;48.45;25.60;;;6.10;99.90;;;;;;5075651;28;20021;-77
2023/04/20 02:48:49;;;;;;;46.83;24.95;;;6.10;99.90;;;;;;5075480;28;20033;-77
2023/04/20 02:51:14;;;;;;;59.90;28.13;;;6.10;99.90;;;;;;5075737;28;20033;-76
2023/04/20 02:53:40;;;;;;;57.67;28.25;;;6.10;99.90;;;;;;5076830;28;20016;-76
2023/04/20 02:56:06;;;;;;;59.40;28.27;;;6.20;99.90;;;;;;5076865;28;20041;-77
2023/04/20 02:58:32;;;;;;;60.55;28.30;;;6.20;99.90;;;;;;5075350;28;20017;-77
2023/04/20 03:01:01;;;;;;;70.07;29.55;;;6.20;99.90;;;;;;5075315;28;20028;-76
2023/04/20 03:03:27;;;;;;;72.15;31.63;;;6.20;99.90;;;;;;5075322;28;20541;-77
2023/04/20 03:05:54;;;;;;;65.53;29.38;;;6.30;99.90;;;;;;5076544;28;20051;-77
2023/04/20 03:08:20;;;;;;;69.13;30.92;;;6.30;99.90;;;;;;5076612;28;20424;-77
2023/04/20 03:10:45;;;;;;;77.78;32.50;;;6.30;99.90;;;;;;5076482;28;20025;-77
2023/04/20 03:13:11;;;;;;;66.43;32.15;;;6.30;99.90;;;;;;5076381;28;20027;-77
2023/04/20 03:15:37;;;;;;;68.95;30.65;;;6.30;99.90;;;;;;5076251;28;20051;-76
2023/04/20 03:18:03;;;;;;;69.95;31.77;;;6.30;99.90;;;;;;5075081;28;20489;-77
2023/04/20 03:20:29;;;;;;;66.35;29.23;;;6.40;99.90;;;;;;5075009;28;20024;-77
2023/04/20 03:22:54;;;;;;;70.07;31.70;;;6.40;99.90;;;;;;5074817;28;20036;-77
2023/04/20 03:25:20;;;;;;;69.15;32.65;;;6.40;99.90;;;;;;5076337;28;20091;-76
2023/04/20 03:27:46;;;;;;;62.78;29.52;;;6.40;99.90;;;;;;5074762;28;20089;-76
2023/04/20 03:30:13;;;;;;;70.40;31.13;;;6.40;99.90;;;;;;5076090;28;20025;-76
2023/04/20 03:32:39;;;;;;;64.68;30.30;;;6.40;99.90;;;;;;5075752;28;20048;-77
2023/04/20 03:35:05;;;;;;;58.95;28.45;;;6.50;99.90;;;;;;5074623;28;20017;-76
2023/04/20 03:37:31;;;;;;;64.55;31.88;;;6.50;99.90;;;;;;5074508;28;20085;-76
2023/04/20 03:39:56;;;;;;;68.55;30.60;;;6.50;99.90;;;;;;5074704;28;20025;-77
2023/04/20 03:42:22;;;;;;;66.95;33.20;;;6.50;99.90;;;;;;5074692;28;20442;-77
2023/04/20 03:44:48;;;;;;;69.18;33.42;;;6.50;99.90;;;;;;5075839;28;20413;-77
2023/04/20 03:47:14;;;;;;;62.15;28.55;;;6.50;99.90;;;;;;5075749;28;20021;-76
2023/04/20 03:49:39;;;;;;;61.10;30.25;;;6.50;99.90;;;;;;5074541;28;20028;-77
2023/04/20 03:52:06;;;;;;;67.53;29.67;;;6.50;99.90;;;;;;5075660;28;20028;-76
2023/04/20 03:54:31;;;;;;;66.53;30.73;;;6.50;99.90;;;;;;5075546;28;20027;-76
2023/04/20 03:56:57;;;;;;;60.95;28.42;;;6.50;99.90;;;;;;5075432;28;20040;-76
2023/04/20 03:59:23;;;;;;;60.15;26.55;;;6.40;99.90;;;;;;5074291;28;20028;-77
2023/04/20 04:01:49;;;;;;;56.83;27.90;;;6.40;99.90;;;;;;5074193;28;20078;-77
2023/04/20 04:04:14;;;;;;;60.10;27.45;;;6.40;99.90;;;;;;5075524;28;20017;-76
2023/04/20 04:06:40;;;;;;;53.67;27.08;;;6.40;99.90;;;;;;5074039;28;20013;-77
2023/04/20 04:09:05;;;;;;;60.53;29.15;;;6.40;99.90;;;;;;5075720;28;20052;-76
2023/04/20 04:11:31;;;;;;;55.08;28.65;;;6.40;99.90;;;;;;5075141;28;20025;-77
2023/04/20 04:13:58;;;;;;;55.00;26.77;;;6.40;99.90;;;;;;5073936;28;20035;-76
2023/04/20 04:16:24;;;;;;;57.65;28.75;;;6.40;99.90;;;;;;5075225;28;20033;-76
2023/04/20 04:18:49;;;;;;;60.63;29.42;;;6.40;99.90;;;;;;5075199;28;20102;-75
2023/04/20 04:21:15;;;;;;;55.08;28.15;;;6.40;99.90;;;;;;5068380;28;20024;-77
2023/04/20 04:23:41;;;;;;;57.88;28.08;;;6.40;99.90;;;;;;5054960;28;20438;-77
2023/04/20 04:26:08;;;;;;;57.72;26.40;;;6.40;99.90;;;;;;5070279;28;20025;-77
2023/04/20 04:28:34;;;;;;;56.03;27.98;;;6.40;99.90;;;;;;5052547;28;20372;-77
2023/04/20 04:31:04;;;;;;;56.15;26.63;;;6.40;99.90;;;;;;5054762;28;20031;-77
2023/04/20 04:33:33;;;;;;;65.30;31.45;;;6.40;99.90;;;;;;5071453;28;20411;-76
2023/04/20 04:36:00;;;;;;;59.60;29.33;;;6.50;99.90;;;;;;5094767;28;20397;-77
2023/04/20 04:38:26;;;;;;;68.57;31.40;;;6.50;99.90;;;;;;5092972;28;20027;-76
2023/04/20 04:40:52;;;;;;;66.35;31.88;;;6.50;99.90;;;;;;5094821;28;20050;-75
2023/04/20 04:43:19;;;;;;;71.07;33.63;;;6.60;99.90;;;;;;5094291;28;20047;-77
2023/04/20 04:45:45;;;;;;;73.78;31.92;;;6.60;99.90;;;;;;5093470;28;20020;-76
2023/04/20 04:48:12;;;;;;;72.57;33.65;;;6.60;99.90;;;;;;5094794;28;20028;-76
2023/04/20 04:50:38;;;;;;;79.30;36.63;;;6.60;99.90;;;;;;5093470;28;20030;-77
2023/04/20 04:53:04;;;;;;;55.65;28.92;;;6.70;99.90;;;;;;5093248;28;20069;-77
2023/04/20 04:55:30;;;;;;;50.13;27.70;;;6.70;99.90;;;;;;5094524;28;20036;-76
2023/04/20 04:57:56;;;;;;;55.22;26.60;;;6.70;99.90;;;;;;5093953;28;20021;-77
2023/04/20 05:00:22;;;;;;;54.20;27.38;;;6.80;99.90;;;;;;5093274;28;20070;-77
2023/04/20 05:02:48;;;;;;;56.28;26.67;;;6.80;99.90;;;;;;5093038;28;20089;-76
2023/04/20 05:05:13;;;;;;;57.40;29.38;;;6.80;99.90;;;;;;5093143;28;20438;-75
2023/04/20 05:07:39;;;;;;;53.45;28.25;;;6.90;99.90;;;;;;5093038;28;20069;-76
2023/04/20 05:10:06;;;;;;;54.63;28.75;;;6.90;99.90;;;;;;5093061;28;20020;-77
2023/04/20 05:12:32;;;;;;;57.88;26.38;;;6.90;99.90;;;;;;5093872;28;20032;-77
2023/04/20 05:14:58;;;;;;;57.55;29.58;;;7.00;99.90;;;;;;5093518;28;20024;-77
2023/04/20 05:17:24;;;;;;;61.13;29.25;;;7.00;99.90;;;;;;5094183;28;20052;-77
2023/04/20 05:19:49;;;;;;;55.47;28.20;;;7.10;99.90;;;;;;5095240;28;20076;-77
2023/04/20 05:22:16;;;;;;;63.03;29.30;;;7.00;99.90;;;;;;5087455;28;20020;-77
2023/04/20 05:24:41;;;;;;;56.72;28.65;;;7.00;99.90;;;;;;5071893;28;20021;-77
2023/04/20 05:27:08;;;;;;;54.35;26.48;;;7.10;99.90;;;;;;5071787;28;20023;-78
2023/04/20 05:29:34;;;;;;;58.75;29.58;;;7.10;99.90;;;;;;5072368;28;20048;-76
2023/04/20 05:32:00;;;;;;;61.20;28.00;;;7.10;99.90;;;;;;5072693;28;20426;-77
2023/04/20 05:34:25;;;;;;;58.55;28.83;;;7.20;99.90;;;;;;5071593;28;20100;-76
2023/04/20 05:36:51;;;;;;;54.83;27.15;;;7.20;99.90;;;;;;5071686;28;20032;-77
2023/04/20 05:39:17;;;;;;;54.83;27.02;;;7.30;99.90;;;;;;5071708;28;20101;-76
2023/04/20 05:41:43;;;;;;;63.00;30.25;;;7.50;99.90;;;;;;5071431;28;20079;-77
2023/04/20 05:44:09;;;;;;;57.88;30.02;;;7.50;99.90;;;;;;5070843;28;20090;-76
2023/04/20 05:46:35;;;;;;;57.58;28.00;;;7.70;99.90;;;;;;5072243;28;20113;-75
2023/04/20 05:49:00;;;;;;;53.03;27.33;;;7.80;99.90;;;;;;5072707;28;20425;-75
2023/04/20 05:51:29;;;;;;;56.22;28.20;;;7.80;99.90;;;;;;5071294;28;20028;-77
2023/04/20 05:53:54;;;;;;;51.28;27.25;;;7.90;99.90;;;;;;5071346;28;20414;-76
2023/04/20 05:56:20;;;;;;;46.88;24.95;;;8.00;99.90;;;;;;5072590;28;20067;-76
2023/04/20 05:58:47;;;;;;;55.33;26.88;;;8.10;99.90;;;;;;5071298;28;20024;-76
2023/04/20 06:01:12;;;;;;;43.03;23.33;;;8.20;99.90;;;;;;5072685;28;20055;-76
2023/04/20 06:03:38;;;;;;;44.70;22.50;;;8.10;99.90;;;;;;5071244;28;20048;-77
2023/04/20 06:06:04;;;;;;;46.45;22.75;;;8.10;99.90;;;;;;5072742;28;20070;-77
2023/04/20 06:08:30;;;;;;;48.38;22.02;;;8.10;99.90;;;;;;5072591;28;20035;-77
2023/04/20 06:10:56;;;;;;;53.25;25.20;;;8.10;99.90;;;;;;5073113;28;20096;-76
2023/04/20 06:13:23;;;;;;;50.25;23.38;;;8.30;99.90;;;;;;5070667;28;20020;-76
2023/04/20 06:15:48;;;;;;;50.35;23.08;;;8.30;99.90;;;;;;5071877;28;20037;-76
2023/04/20 06:18:14;;;;;;;45.60;23.10;;;8.40;99.90;;;;;;5072787;28;20095;-76
2023/04/20 06:20:42;;;;;;;45.08;21.52;;;8.30;99.90;;;;;;5072899;28;20035;-77
2023/04/20 06:23:08;;;;;;;44.08;20.77;;;8.30;99.90;;;;;;5073050;28;20029;-76
2023/04/20 06:25:35;;;;;;;44.33;21.13;;;8.40;99.90;;;;;;5073055;28;20025;-76
2023/04/20 06:28:02;;;;;;;47.15;21.40;;;8.60;99.90;;;;;;5073128;28;20063;-77
2023/04/20 06:30:28;;;;;;;39.45;22.02;;;8.80;99.90;;;;;;5071878;28;20482;-77
2023/04/20 06:32:54;;;;;;;45.08;22.85;;;8.90;99.90;;;;;;5071447;28;20040;-76
2023/04/20 06:35:21;;;;;;;37.65;20.13;;;9.10;99.90;;;;;;5071728;28;20025;-77
2023/04/20 06:37:47;;;;;;;38.42;20.35;;;9.30;99.90;;;;;;5073024;28;20016;-78
2023/04/20 06:40:12;;;;;;;44.95;20.13;;;9.50;99.90;;;;;;5071640;28;20108;-76
2023/04/20 06:42:38;;;;;;;37.55;18.52;;;9.60;99.90;;;;;;5072840;28;20103;-76
2023/04/20 06:45:05;;;;;;;39.08;19.25;;;9.70;99.90;;;;;;5071447;28;20115;-76
2023/04/20 06:47:32;;;;;;;40.47;18.60;;;9.80;99.90;;;;;;5072609;28;20078;-77
2023/04/20 06:49:58;;;;;;;34.67;18.70;;;9.90;99.90;;;;;;5071024;28;20032;-78
2023/04/20 06:52:24;;;;;;;38.65;17.83;;;10.00;99.90;;;;;;5071510;28;20032;-77
2023/04/20 06:54:49;;;;;;;30.83;17.85;;;10.10;99.90;;;;;;5072617;28;20017;-78
2023/04/20 06:57:15;;;;;;;32.55;16.02;;;10.20;99.90;;;;;;5072810;28;20103;-77
2023/04/20 06:59:41;;;;;;;35.55;17.63;;;10.30;99.90;;;;;;5072746;28;20070;-77
2023/04/20 07:02:06;;;;;;;31.08;16.42;;;10.30;99.90;;;;;;5075741;28;20017;-77
2023/04/20 07:04:32;;;;;;;39.97;16.85;;;10.40;99.90;;;;;;5075093;28;20056;-76
2023/04/20 07:06:57;;;;;;;26.00;14.95;;;10.50;99.90;;;;;;5075401;28;20071;-77
2023/04/20 07:09:23;;;;;;;33.80;16.55;;;10.50;99.90;;;;;;5074408;28;20420;-78
2023/04/20 07:11:49;;;;;;;30.70;17.80;;;10.50;99.90;;;;;;5074394;28;20487;-76
2023/04/20 07:14:15;;;;;;;34.90;18.48;;;10.40;99.90;;;;;;5076122;28;20100;-78
2023/04/20 07:16:40;;;;;;;30.85;18.45;;;10.40;99.90;;;;;;5076073;28;20504;-78
2023/04/20 07:19:06;;;;;;;34.20;17.27;;;10.50;99.90;;;;;;5075111;28;20013;-77
2023/04/20 07:21:32;;;;;;;29.70;16.80;;;10.50;99.90;;;;;;5076126;28;20409;-77
2023/04/20 07:23:57;;;;;;;31.95;17.67;;;10.40;99.90;;;;;;5074468;28;20393;-78
2023/04/20 07:26:24;;;;;;;24.77;14.95;;;10.50;99.90;;;;;;5075823;28;20027;-78
2023/04/20 07:28:50;;;;;;;27.73;14.93;;;10.40;99.90;;;;;;5073721;28;20017;-78
2023/04/20 07:31:16;;;;;;;24.77;14.20;;;10.60;99.90;;;;;;5072134;28;20033;-77
2023/04/20 07:33:42;;;;;;;21.17;13.35;;;10.70;99.90;;;;;;5075434;28;20093;-77
2023/04/20 07:36:09;;;;;;;27.35;15.57;;;10.60;99.40;;;;;;5075520;28;20041;-76
2023/04/20 07:38:35;;;;;;;23.50;14.77;;;10.60;98.70;;;;;;5075474;28;20465;-77
2023/04/20 07:41:01;;;;;;;25.83;14.02;;;10.80;99.80;;;;;;5075505;28;20488;-77
2023/04/20 07:43:27;;;;;;;24.35;14.20;;;10.90;99.90;;;;;;5075248;28;20036;-77
2023/04/20 07:45:53;;;;;;;26.67;15.25;;;10.90;97.70;;;;;;5073737;28;20022;-76
2023/04/20 07:48:19;;;;;;;72.38;19.80;;;11.00;99.20;;;;;;5074986;28;20047;-77
2023/04/20 07:50:45;;;;;;;31.33;16.20;;;11.20;99.20;;;;;;5073104;28;20482;-77
2023/04/20 07:53:11;;;;;;;29.83;16.75;;;11.20;97.20;;;;;;5073887;28;20462;-78
2023/04/20 07:55:37;;;;;;;33.00;17.42;;;11.20;98.80;;;;;;5075118;28;20044;-77
2023/04/20 07:58:02;;;;;;;24.23;13.73;;;11.20;99.20;;;;;;5075092;28;20475;-77
2023/04/20 08:00:28;;;;;;;25.08;14.70;;;11.30;99.50;;;;;;5073540;28;20125;-78
2023/04/20 08:02:54;;;;;;;31.88;14.43;;;11.60;97.00;;;;;;5075286;28;20071;-77
2023/04/20 08:05:20;;;;;;;20.20;12.35;;;11.70;94.20;;;;;;5075001;28;20024;-77
2023/04/20 08:07:45;;;;;;;24.17;13.93;;;11.80;90.70;;;;;;5073493;28;20013;-79
2023/04/20 08:10:11;;;;;;;21.80;13.68;;;12.00;87.90;;;;;;5074166;28;20031;-79
2023/04/20 08:12:38;;;;;;;21.67;13.07;;;12.10;88.50;;;;;;5073320;28;20033;-79
2023/04/20 08:15:05;;;;;;;20.55;12.05;;;12.40;86.40;;;;;;5074151;28;20075;-79
2023/04/20 08:17:31;;;;;;;25.60;13.65;;;12.50;82.40;;;;;;5072866;28;20037;-79
2023/04/20 08:19:57;;;;;;;18.35;12.32;;;12.40;81.50;;;;;;5074228;28;20470;-79
2023/04/20 08:22:28;;;;;;;14.38;10.27;;;12.30;81.80;;;;;;5074160;28;20104;-79
2023/04/20 08:24:55;;;;;;;18.65;10.30;;;12.40;81.10;;;;;;5072629;28;20118;-79
2023/04/20 08:27:21;;;;;;;21.55;12.00;;;12.50;80.80;;;;;;5072429;28;20386;-79
2023/04/20 08:29:46;;;;;;;17.38;10.43;;;12.70;82.40;;;;;;5073793;28;20027;-78
2023/04/20 08:32:12;;;;;;;19.58;12.15;;;12.90;80.10;;;;;;5072255;28;20490;-78
2023/04/20 08:34:38;;;;;;;18.48;9.70;;;13.00;78.30;;;;;;5072460;28;20021;-79
2023/04/20 08:37:04;;;;;;;12.02;7.75;;;13.10;77.40;;;;;;5072301;28;20051;-79
2023/04/20 08:39:30;;;;;;;14.57;8.30;;;13.10;73.80;;;;;;5055772;28;20485;-77
2023/04/20 08:41:56;;;;;;;20.98;10.82;;;13.10;75.00;;;;;;5072312;28;20021;-78
2023/04/20 08:44:23;;;;;;;16.92;10.23;;;13.40;76.20;;;;;;5073563;28;20537;-78
2023/04/20 08:46:50;;;;;;;16.70;9.80;;;13.60;74.10;;;;;;5073317;28;20481;-78
2023/04/20 08:49:17;;;;;;;16.40;9.57;;;13.60;72.70;;;;;;5072152;28;20085;-79
2023/04/20 08:51:44;;;;;;;15.52;9.00;;;13.90;74.40;;;;;;5073178;28;20478;-78
2023/04/20 08:54:10;;;;;;;13.02;8.80;;;13.90;73.20;;;;;;5073237;28;20020;-78
2023/04/20 08:56:38;;;;;;;13.73;9.35;;;13.90;73.40;;;;;;5072154;28;20039;-78
2023/04/20 08:59:05;;;;;;;22.88;11.70;;;13.80;74.00;;;;;;5073082;28;20032;-79
2023/04/20 09:01:31;;;;;;;17.10;10.35;;;13.80;75.80;;;;;;5073073;28;20033;-79
2023/04/20 09:03:59;;;;;;;15.82;10.88;;;13.70;73.70;;;;;;5073505;28;20016;-79
2023/04/20 09:06:25;;;;;;;16.20;9.98;;;13.70;74.10;;;;;;5073801;28;20507;-79
2023/04/20 09:08:51;;;;;;;17.00;11.55;;;13.90;76.70;;;;;;5072462;28;20027;-77
2023/04/20 09:11:25;;;;;;;18.05;10.73;;;13.80;74.00;;;;;;5073773;28;20082;-78
2023/04/20 09:14:00;;;;;;;29.05;11.88;;;13.70;73.00;;;;;;5072404;28;20440;-77
2023/04/20 09:16:26;;;;;;;19.75;10.27;;;13.60;77.30;;;;;;5073441;28;20032;-77
2023/04/20 09:18:53;;;;;;;14.52;9.02;;;13.70;75.80;;;;;;5084045;28;20042;-77
2023/04/20 09:21:20;;;;;;;16.02;9.02;;;13.50;74.20;;;;;;5092808;28;20477;-78
2023/04/20 09:24:01;;;;;;;19.40;11.15;;;13.30;72.90;;;;;;5092748;28;20024;-78
2023/04/20 09:26:34;;;;;;;22.75;11.75;;;13.40;77.10;;;;;;5092653;28;20500;-78
2023/04/20 09:29:01;;;;;;;19.45;12.25;;;13.30;78.70;;;;;;5093928;28;20027;-77
2023/04/20 09:31:26;;;;;;;19.50;11.27;;;13.30;78.90;;;;;;5092431;28;20034;-78
2023/04/20 09:34:02;;;;;;;19.38;10.95;;;13.40;77.70;;;;;;5092478;28;20052;-78
2023/04/20 09:36:36;;;;;;;17.15;10.05;;;13.00;76.40;;;;;;5080810;28;20036;-78
2023/04/20 09:39:17;;;;;;;16.27;10.68;;;13.00;75.40;;;;;;5072071;28;20450;-78
2023/04/20 09:41:43;;;;;;;18.58;12.15;;;13.30;79.20;;;;;;5087399;28;20024;-78
2023/04/20 09:44:10;;;;;;;16.67;11.05;;;13.20;80.10;;;;;;5071151;28;20066;-78
2023/04/20 09:46:38;;;;;;;19.83;10.95;;;13.10;80.70;;;;;;5088368;28;20012;-76
2023/04/20 09:49:06;;;;;;;21.15;10.90;;;13.00;80.80;;;;;;5092243;28;20043;-78
2023/04/20 09:51:34;;;;;;;19.98;11.07;;;12.90;79.30;;;;;;5079127;28;20025;-77
2023/04/20 09:54:01;;;;;;;20.73;11.50;;;12.90;83.10;;;;;;5069222;28;20020;-77
2023/04/20 09:56:28;;;;;;;16.17;10.65;;;12.80;83.30;;;;;;5069945;28;20036;-78
2023/04/20 09:58:54;;;;;;;19.60;11.48;;;12.60;84.70;;;;;;5071051;28;20024;-78
2023/04/20 10:01:21;;;;;;;17.02;9.52;;;12.60;87.50;;;;;;5071029;28;20020;-78
2023/04/20 10:03:48;;;;;;;21.50;10.52;;;12.50;86.10;;;;;;5072269;28;20390;-78
2023/04/20 10:06:21;;;;;;;20.20;10.80;;;12.60;88.60;;;;;;5072281;28;20025;-77
2023/04/20 10:08:48;;;;;;;14.57;10.07;;;12.50;85.80;;;;;;5070938;28;20025;-78
2023/04/20 10:11:33;;;;;;;22.70;11.20;;;12.40;84.90;;;;;;5070916;28;20020;-78
2023/04/20 10:14:15;;;;;;;16.25;10.68;;;12.40;89.90;;;;;;5070897;28;20020;-76
2023/04/20 10:16:41;;;;;;;18.30;11.25;;;12.50;89.60;;;;;;5072551;28;20044;-77
2023/04/20 10:19:06;;;;;;;20.13;12.80;;;12.50;89.30;;;;;;5073161;28;20032;-78
2023/04/20 10:21:43;;;;;;;23.92;13.02;;;12.50;90.30;;;;;;5071713;28;20492;-77
2023/04/20 10:24:08;;;;;;;23.98;14.25;;;12.50;91.50;;;;;;5071717;28;20047;-78
2023/04/20 10:26:41;;;;;;;23.80;13.15;;;12.70;92.60;;;;;;5071357;28;20059;-78
2023/04/20 10:29:07;;;;;;;17.48;12.02;;;12.80;90.80;;;;;;5072911;28;20520;-77
2023/04/20 10:31:37;;;;;;;28.70;15.70;;;12.70;93.10;;;;;;5072662;28;20024;-78
2023/04/20 10:34:03;;;;;;;23.17;14.32;;;12.70;93.10;;;;;;5071395;28;20182;-77
2023/04/20 10:36:31;;;;;;;29.38;14.95;;;12.40;95.60;;;;;;5074802;28;20525;-77
2023/04/20 10:38:57;;;;;;;23.67;15.80;;;12.40;96.50;;;;;;5075370;28;20115;-76
2023/04/20 10:41:23;;;;;;;23.77;14.75;;;12.50;98.30;;;;;;5077448;28;20012;-76
2023/04/20 10:43:49;;;;;;;21.52;14.27;;;12.40;99.90;;;;;;5076409;28;20170;-78
2023/04/20 10:46:20;;;;;;;26.40;14.43;;;12.30;99.90;;;;;;5074333;28;20029;-77
2023/04/20 10:48:57;;;;;;;29.23;15.20;;;12.20;99.90;;;;;;5073684;28;20119;-77
2023/04/20 10:51:24;;;;;;;24.63;13.90;;;12.30;99.90;;;;;;5074052;28;20013;-77
2023/04/20 10:53:59;;;;;;;19.95;12.63;;;12.30;99.90;;;;;;5076397;28;20110;-76
2023/04/20 10:56:26;;;;;;;17.92;12.25;;;12.10;99.90;;;;;;5074786;28;20093;-78
2023/04/20 10:58:52;;;;;;;20.73;11.55;;;12.20;99.90;;;;;;5076088;28;20028;-78
2023/04/20 11:01:18;;;;;;;18.30;10.20;;;12.20;99.90;;;;;;5075263;28;20044;-77
2023/04/20 11:03:50;;;;;;;18.50;11.25;;;12.30;99.90;;;;;;5073029;28;20411;-77
2023/04/20 11:06:16;;;;;;;19.83;11.38;;;12.30;99.90;;;;;;5074898;28;20027;-76
2023/04/20 11:08:42;;;;;;;24.70;11.95;;;12.30;99.90;;;;;;5074444;28;20040;-77
2023/04/20 11:11:28;;;;;;;12.82;7.72;;;12.20;99.90;;;;;;5073831;28;20032;-78
2023/04/20 11:14:06;;;;;;;11.30;7.32;;;12.20;99.90;;;;;;5073727;28;20017;-78
2023/04/20 11:16:32;;;;;;;17.02;8.25;;;12.30;96.80;;;;;;5080804;28;20489;-77
2023/04/20 11:18:58;;;;;;;13.77;7.68;;;12.50;99.90;;;;;;5090202;28;20020;-78
2023/04/20 11:21:38;;;;;;;10.45;7.65;;;12.50;95.70;;;;;;5074675;28;20080;-77
2023/04/20 11:24:15;;;;;;;11.63;7.93;;;12.60;99.60;;;;;;5075249;28;20029;-76
2023/04/20 11:26:42;;;;;;;12.68;7.40;;;12.80;96.50;;;;;;5072373;28;20375;-77
2023/04/20 11:29:08;;;;;;;15.02;7.53;;;13.00;94.20;;;;;;5073658;28;20082;-78
2023/04/20 11:31:34;;;;;;;10.40;6.80;;;13.20;88.00;;;;;;5075291;28;20028;-76
2023/04/20 11:33:59;;;;;;;12.20;6.80;;;13.20;85.40;;;;;;5075378;28;20045;-75
2023/04/20 11:36:28;;;;;;;11.43;6.40;;;13.30;86.90;;;;;;5074240;28;20028;-77
2023/04/20 11:38:54;;;;;;;15.15;7.43;;;13.20;87.00;;;;;;5072455;28;20118;-76
2023/04/20 11:41:20;;;;;;;11.18;7.38;;;13.40;89.60;;;;;;5074936;28;20025;-75
2023/04/20 11:43:47;;;;;;;10.52;6.82;;;13.60;88.40;;;;;;5074296;28;20058;-75
2023/04/20 11:46:18;;;;;;;10.30;6.88;;;13.60;83.00;;;;;;5072378;28;20017;-77
2023/04/20 11:48:46;;;;;;;12.35;6.35;;;13.80;82.50;;;;;;5070603;28;20095;-77
2023/04/20 11:51:12;;;;;;;14.15;7.55;;;13.70;82.30;;;;;;5071342;28;20024;-75
2023/04/20 11:53:38;;;;;;;9.50;6.35;;;13.70;80.50;;;;;;5071955;28;20501;-76
2023/04/20 11:56:05;;;;;;;9.15;6.35;;;13.50;80.90;;;;;;5070735;28;20028;-75
2023/04/20 11:58:30;;;;;;;10.32;5.13;;;13.40;81.00;;;;;;5069738;28;20034;-75
2023/04/20 12:00:56;;;;;;;10.52;5.70;;;13.40;77.70;;;;;;5073132;28;20092;-77
2023/04/20 12:03:21;;;;;;;18.27;6.10;;;13.30;78.60;;;;;;5072620;28;20051;-77
2023/04/20 12:05:47;;;;;;;9.80;5.80;;;13.20;78.90;;;;;;5072639;28;20031;-75
2023/04/20 12:08:13;;;;;;;10.23;5.47;;;13.30;79.90;;;;;;5072196;28;20020;-75
2023/04/20 12:10:39;;;;;;;10.63;4.88;;;13.30;77.10;;;;;;5072021;28;20044;-75
2023/04/20 12:13:05;;;;;;;10.52;5.00;;;13.40;78.30;;;;;;5071495;28;20099;-75
2023/04/20 12:15:31;;;;;;;8.80;5.00;;;13.30;77.20;;;;;;5072140;28;20464;-76
2023/04/20 12:17:57;;;;;;;15.40;5.72;;;13.50;77.80;;;;;;5072014;28;20103;-77
2023/04/20 12:20:22;;;;;;;8.65;5.75;;;13.60;76.00;;;;;;5072274;28;20524;-77
2023/04/20 12:22:48;;;;;;;16.48;5.90;;;13.60;77.50;;;;;;5073420;28;20427;-78
2023/04/20 12:25:14;;;;;;;10.52;4.97;;;13.70;74.90;;;;;;5073395;28;20025;-77
2023/04/20 12:27:39;;;;;;;14.63;5.38;;;13.60;73.90;;;;;;5073568;28;20078;-78
2023/04/20 12:30:08;;;;;;;12.32;4.95;;;13.70;74.60;;;;;;5073652;28;20020;-77